createdAt,value
2022-11-09T00:01:02.186Z,94.40
2022-11-09T00:03:28.505Z,94.07
2022-11-09T00:05:56.749Z,94.76
2022-11-09T00:08:23.089Z,94.73
2022-11-09T00:10:49.557Z,94.50
2022-11-09T00:13:16.133Z,94.40
2022-11-09T00:15:42.613Z,94.01
2022-11-09T00:18:08.994Z,94.83
2022-11-09T00:20:35.328Z,95.23
2022-11-09T00:23:01.698Z,95.05
2022-11-09T00:25:28.045Z,95.17
2022-11-09T00:27:54.431Z,95.40
2022-11-09T00:30:20.791Z,94.96
2022-11-09T00:32:48.027Z,94.76
2022-11-09T00:35:14.539Z,95.36
2022-11-09T00:37:40.996Z,95.06
2022-11-09T00:40:08.657Z,95.54
2022-11-09T00:42:34.998Z,95.62
2022-11-09T00:45:01.394Z,95.62
2022-11-09T00:47:27.743Z,96.09
2022-11-09T00:49:54.073Z,96.25
2022-11-09T00:52:20.415Z,96.08
2022-11-09T00:54:46.780Z,96.08
2022-11-09T00:57:14.069Z,96.14
2022-11-09T00:59:40.530Z,95.78
2022-11-09T01:02:06.920Z,95.78
2022-11-09T01:04:33.271Z,96.58
2022-11-09T01:06:59.949Z,96.28
2022-11-09T01:09:26.404Z,95.96
2022-11-09T01:11:52.887Z,96.18
2022-11-09T01:14:19.269Z,96.05
2022-11-09T01:16:45.622Z,95.71
2022-11-09T01:19:12.045Z,96.07
2022-11-09T01:21:38.448Z,96.71
2022-11-09T01:24:05.400Z,96.42
2022-11-09T01:26:31.771Z,95.84
2022-11-09T01:28:58.126Z,95.66
2022-11-09T01:31:24.518Z,95.38
2022-11-09T01:33:51.209Z,95.74
2022-11-09T01:36:20.518Z,95.80
2022-11-09T01:38:47.317Z,95.35
2022-11-09T01:41:27.828Z,95.26
2022-11-09T01:44:11.153Z,95.27
2022-11-09T01:46:44.932Z,95.17
2022-11-09T01:49:40.755Z,94.94
2022-11-09T01:52:12.578Z,95.11
2022-11-09T01:54:45.690Z,95.49
2022-11-09T01:57:18.026Z,95.40
2022-11-09T01:59:48.564Z,95.06
2022-11-09T02:02:15.313Z,95.35
2022-11-09T02:05:05.857Z,95.35
2022-11-09T02:07:34.011Z,95.13
2022-11-09T02:10:33.772Z,95.20
2022-11-09T02:13:00.346Z,95.47
2022-11-09T02:15:27.711Z,95.05
2022-11-09T02:17:55.898Z,95.23
2022-11-09T02:20:23.262Z,95.23
2022-11-09T02:22:51.092Z,95.43
2022-11-09T02:25:17.699Z,95.26
2022-11-09T02:27:44.513Z,95.38
2022-11-09T02:30:12.068Z,95.60
2022-11-09T02:32:38.483Z,94.76
2022-11-09T02:35:05.304Z,95.35
2022-11-09T02:37:39.890Z,95.35
2022-11-09T02:40:32.832Z,95.65
2022-11-09T02:43:01.547Z,95.45
2022-11-09T02:45:28.010Z,95.84
2022-11-09T02:47:54.438Z,96.09
2022-11-09T02:50:20.979Z,95.59
2022-11-09T02:52:47.326Z,96.83
2022-11-09T02:55:13.719Z,96.03
2022-11-09T02:57:40.307Z,96.28
2022-11-09T03:00:07.461Z,95.70
2022-11-09T03:02:34.049Z,95.98
2022-11-09T03:05:00.433Z,96.21
2022-11-09T03:07:26.976Z,95.52
2022-11-09T03:09:53.927Z,95.79
2022-11-09T03:12:29.522Z,95.75
2022-11-09T03:15:05.259Z,96.23
2022-11-09T03:17:32.435Z,95.90
2022-11-09T03:19:58.828Z,96.11
2022-11-09T03:22:25.184Z,96.52
2022-11-09T03:24:51.646Z,96.43
2022-11-09T03:27:18.203Z,95.95
2022-11-09T03:29:44.607Z,96.02
2022-11-09T03:32:12.001Z,96.04
2022-11-09T03:34:38.375Z,96.50
2022-11-09T03:37:04.768Z,96.35
2022-11-09T03:39:31.139Z,96.35
2022-11-09T03:41:57.510Z,96.35
2022-11-09T03:44:23.869Z,95.93
2022-11-09T03:46:50.221Z,95.91
2022-11-09T03:49:16.648Z,95.84
2022-11-09T03:51:42.992Z,96.38
2022-11-09T03:54:09.509Z,96.25
2022-11-09T03:56:35.838Z,96.20
2022-11-09T03:59:02.378Z,96.05
2022-11-09T04:01:28.856Z,95.90
2022-11-09T04:03:55.301Z,96.25
2022-11-09T04:06:21.671Z,96.50
2022-11-09T04:08:51.311Z,96.37
2022-11-09T04:11:18.266Z,96.71
2022-11-09T04:13:44.617Z,96.58
2022-11-09T04:16:10.970Z,96.56
2022-11-09T04:18:37.422Z,96.45
2022-11-09T04:21:03.781Z,96.50
2022-11-09T04:23:30.144Z,96.63
2022-11-09T04:25:58.502Z,96.40
2022-11-09T04:28:25.041Z,96.61
2022-11-09T04:30:51.612Z,96.51
2022-11-09T04:33:18.337Z,96.89
2022-11-09T04:35:44.903Z,96.26
2022-11-09T04:38:13.119Z,96.17
2022-11-09T04:40:39.551Z,96.33
2022-11-09T04:43:07.947Z,96.27
2022-11-09T04:45:34.675Z,96.44
2022-11-09T04:48:02.870Z,96.88
2022-11-09T04:50:30.522Z,96.54
2022-11-09T04:53:07.760Z,96.72
2022-11-09T04:55:34.407Z,96.64
2022-11-09T04:58:00.748Z,97.21
2022-11-09T05:00:27.153Z,96.81
2022-11-09T05:02:53.602Z,96.73
2022-11-09T05:05:20.044Z,97.02
2022-11-09T05:07:46.380Z,96.64
2022-11-09T05:10:12.717Z,96.59
2022-11-09T05:12:43.448Z,96.60
2022-11-09T05:15:12.169Z,97.05
2022-11-09T05:17:38.475Z,96.88
2022-11-09T05:20:05.183Z,97.02
2022-11-09T05:22:50.329Z,97.91
2022-11-09T05:25:16.810Z,96.88
2022-11-09T05:27:43.155Z,97.08
2022-11-09T05:30:09.944Z,96.91
2022-11-09T05:32:39.276Z,96.97
2022-11-09T05:35:06.064Z,96.87
2022-11-09T05:37:32.458Z,97.33
2022-11-09T05:39:58.855Z,97.04
2022-11-09T05:42:25.285Z,96.90
2022-11-09T05:44:51.709Z,97.21
2022-11-09T05:47:19.338Z,97.05
2022-11-09T05:49:45.703Z,97.36
2022-11-09T05:52:12.697Z,96.97
2022-11-09T05:54:39.112Z,97.26
2022-11-09T05:57:05.548Z,96.48
2022-11-09T05:59:31.923Z,97.68
2022-11-09T06:01:58.264Z,97.30
2022-11-09T06:04:24.785Z,96.94
2022-11-09T06:06:51.163Z,97.17
2022-11-09T06:09:17.634Z,96.98
2022-11-09T06:11:43.974Z,96.79
2022-11-09T06:14:10.312Z,97.18
2022-11-09T06:16:36.774Z,96.52
2022-11-09T06:19:03.252Z,97.03
2022-11-09T06:21:29.602Z,96.75
2022-11-09T06:23:55.976Z,96.55
2022-11-09T06:26:22.370Z,96.65
2022-11-09T06:28:48.779Z,96.25
2022-11-09T06:31:16.817Z,96.48
2022-11-09T06:33:43.581Z,96.09
2022-11-09T06:36:11.297Z,96.35
2022-11-09T06:38:37.805Z,96.68
2022-11-09T06:41:04.282Z,96.00
2022-11-09T06:43:32.048Z,96.18
2022-11-09T06:45:58.521Z,96.74
2022-11-09T06:48:24.911Z,97.11
2022-11-09T06:50:51.356Z,96.84
2022-11-09T06:53:18.624Z,96.86
2022-11-09T06:55:50.217Z,96.50
2022-11-09T06:58:19.356Z,96.69
2022-11-09T07:00:46.126Z,96.40
2022-11-09T07:03:16.898Z,96.77
2022-11-09T07:05:43.995Z,96.34
2022-11-09T07:08:11.061Z,96.59
2022-11-09T07:10:37.697Z,97.03
2022-11-09T07:13:04.993Z,96.78
2022-11-09T07:15:32.165Z,97.01
2022-11-09T07:18:03.491Z,96.76
2022-11-09T07:20:29.876Z,96.46
2022-11-09T07:22:56.527Z,96.55
2022-11-09T07:25:23.293Z,96.65
2022-11-09T07:27:50.225Z,96.12
2022-11-09T07:30:16.815Z,95.79
2022-11-09T07:35:30.789Z,95.67
2022-11-09T07:38:01.683Z,95.32
2022-11-09T07:40:28.295Z,95.66
2022-11-09T07:42:58.771Z,94.93
2022-11-09T07:45:25.937Z,94.90
2022-11-09T07:48:00.438Z,94.52
2022-11-09T07:50:28.366Z,94.39
2022-11-09T07:52:56.300Z,93.90
2022-11-09T07:55:23.369Z,94.14
2022-11-09T07:57:54.344Z,93.46
2022-11-09T08:00:23.594Z,94.04
2022-11-09T08:02:50.357Z,94.66
2022-11-09T08:05:16.889Z,95.10
2022-11-09T08:07:43.270Z,95.15
2022-11-09T08:10:10.067Z,95.05
2022-11-09T08:12:37.393Z,94.97
2022-11-09T08:15:05.247Z,95.27
2022-11-09T08:17:32.005Z,94.89
2022-11-09T08:19:58.338Z,94.31
2022-11-09T08:22:24.709Z,95.58
2022-11-09T08:24:51.268Z,95.06
2022-11-09T08:27:17.607Z,93.89
2022-11-09T08:29:44.848Z,93.58
2022-11-09T08:32:11.303Z,93.10
2022-11-09T08:34:37.625Z,92.94
2022-11-09T08:37:05.357Z,92.50
2022-11-09T08:39:31.743Z,93.18
2022-11-09T08:41:58.315Z,92.97
2022-11-09T08:44:24.665Z,92.63
2022-11-09T08:46:51.037Z,92.22
2022-11-09T08:49:17.958Z,92.49
2022-11-09T08:51:44.271Z,92.55
2022-11-09T08:54:11.302Z,92.92
2022-11-09T08:56:37.725Z,94.01
2022-11-09T08:59:04.070Z,93.52
2022-11-09T09:01:31.866Z,93.64
2022-11-09T09:03:58.248Z,93.79
2022-11-09T09:06:29.773Z,93.39
2022-11-09T09:08:57.381Z,93.22
2022-11-09T09:11:23.742Z,92.50
2022-11-09T09:13:50.229Z,92.47
2022-11-09T09:16:16.604Z,92.69
2022-11-09T09:18:44.066Z,92.75
2022-11-09T09:21:10.942Z,92.29
2022-11-09T09:23:37.391Z,92.47
2022-11-09T09:26:04.235Z,92.41
2022-11-09T09:28:30.631Z,93.08
2022-11-09T09:31:01.000Z,92.69
2022-11-09T09:33:27.990Z,92.61
2022-11-09T09:35:58.543Z,92.15
2022-11-09T09:38:28.914Z,92.22
2022-11-09T09:41:03.514Z,91.16
2022-11-09T09:43:32.089Z,88.82
2022-11-09T09:46:00.540Z,88.30
2022-11-09T09:48:35.026Z,87.23
2022-11-09T09:51:32.267Z,87.63
2022-11-09T09:54:21.460Z,87.67
2022-11-09T09:56:50.770Z,85.46
2022-11-09T09:59:41.465Z,85.73
2022-11-09T10:02:35.449Z,87.23
2022-11-09T10:05:07.931Z,87.37
2022-11-09T10:08:14.217Z,87.19
2022-11-09T10:11:05.723Z,88.76
2022-11-09T10:13:55.226Z,89.43
2022-11-09T10:16:47.612Z,88.73
2022-11-09T10:19:32.174Z,88.73
2022-11-09T10:22:11.433Z,88.64
2022-11-09T10:25:12.826Z,87.02
2022-11-09T10:27:32.484Z,84.04
2022-11-09T10:29:59.651Z,79.96
2022-11-09T10:32:30.319Z,80.64
2022-11-09T10:35:13.948Z,82.09
2022-11-09T10:37:43.076Z,81.87
2022-11-09T10:40:31.500Z,79.40
2022-11-09T10:43:00.651Z,80.64
2022-11-09T10:45:30.832Z,78.20
2022-11-09T10:47:57.701Z,74.85
2022-11-09T10:50:53.811Z,74.85
2022-11-09T10:53:25.561Z,76.33
2022-11-09T10:55:56.137Z,75.88
2022-11-09T10:58:33.072Z,74.74
2022-11-09T11:01:03.037Z,75.23
2022-11-09T11:03:32.863Z,77.73
2022-11-09T11:06:27.390Z,79.31
2022-11-09T11:09:05.731Z,79.27
2022-11-09T11:11:37.709Z,79.75
2022-11-09T11:14:25.283Z,79.08
2022-11-09T11:16:53.482Z,77.31
2022-11-09T11:19:41.367Z,76.50
2022-11-09T11:22:23.145Z,77.04
2022-11-09T11:24:55.505Z,77.88
2022-11-09T11:27:22.918Z,80.13
2022-11-09T11:29:59.332Z,77.72
2022-11-09T11:32:25.984Z,76.90
2022-11-09T11:35:01.165Z,77.51
2022-11-09T11:38:09.405Z,77.81
2022-11-09T11:40:48.586Z,80.17
2022-11-09T11:43:24.877Z,80.80
2022-11-09T11:46:08.764Z,81.91
2022-11-09T11:48:48.595Z,82.75
2022-11-09T11:51:39.988Z,82.65
2022-11-09T11:54:20.329Z,83.43
2022-11-09T11:56:52.629Z,83.26
2022-11-09T11:59:35.899Z,81.86
2022-11-09T12:02:47.014Z,77.23
2022-11-09T12:05:43.646Z,75.48
2022-11-09T12:08:34.505Z,74.42
2022-11-09T12:11:30.921Z,71.41
2022-11-09T12:14:16.702Z,68.97
2022-11-09T12:16:48.741Z,74.88
2022-11-09T12:19:35.099Z,74.47
2022-11-09T12:22:18.073Z,75.72
2022-11-09T12:24:58.856Z,76.13
2022-11-09T12:27:48.179Z,76.13
2022-11-09T12:30:18.271Z,76.49
2022-11-09T12:33:06.187Z,77.88
2022-11-09T12:35:40.764Z,78.60
2022-11-09T12:38:18.331Z,79.20
2022-11-09T12:40:51.905Z,79.16
2022-11-09T12:43:25.475Z,79.36
2022-11-09T12:45:52.977Z,78.58
2022-11-09T12:48:25.742Z,76.62
2022-11-09T12:50:53.672Z,76.36
2022-11-09T12:53:24.134Z,77.83
2022-11-09T12:55:58.485Z,78.37
2022-11-09T12:58:30.692Z,79.38
2022-11-09T13:00:59.791Z,79.80
2022-11-09T13:03:32.171Z,77.64
2022-11-09T13:06:25.348Z,78.97
2022-11-09T13:08:59.152Z,78.28
2022-11-09T13:11:34.118Z,77.63
2022-11-09T13:14:22.308Z,76.81
2022-11-09T13:16:48.568Z,76.14
2022-11-09T13:19:38.161Z,74.99
2022-11-09T13:22:13.635Z,73.20
2022-11-09T13:25:00.390Z,76.76
2022-11-09T13:27:35.194Z,77.36
2022-11-09T13:30:02.574Z,74.28
2022-11-09T13:32:33.083Z,74.13
2022-11-09T13:35:01.266Z,71.79
2022-11-09T13:37:42.662Z,72.75
2022-11-09T13:40:30.999Z,75.95
2022-11-09T13:43:01.682Z,76.06
2022-11-09T13:45:36.252Z,76.75
2022-11-09T13:48:04.429Z,75.38
2022-11-09T13:50:33.104Z,72.33
2022-11-09T13:53:00.854Z,73.53
2022-11-09T13:55:53.648Z,73.92
2022-11-09T13:58:37.360Z,74.67
2022-11-09T14:01:03.694Z,76.55
2022-11-09T14:03:30.190Z,76.26
2022-11-09T14:06:00.231Z,75.57
2022-11-09T14:08:45.759Z,74.59
2022-11-09T14:11:21.285Z,73.27
2022-11-09T14:14:03.856Z,74.79
2022-11-09T14:16:45.647Z,77.89
2022-11-09T14:19:25.177Z,77.91
2022-11-09T14:21:52.977Z,78.41
2022-11-09T14:24:28.830Z,80.70
2022-11-09T14:27:10.180Z,82.34
2022-11-09T14:29:50.335Z,82.29
2022-11-09T14:32:35.540Z,81.82
2022-11-09T14:35:33.472Z,82.03
2022-11-09T14:38:13.050Z,81.55
2022-11-09T14:40:45.673Z,80.06
2022-11-09T14:43:29.451Z,80.49
2022-11-09T14:46:02.898Z,82.45
2022-11-09T14:48:31.804Z,83.03
2022-11-09T14:51:01.007Z,85.04
2022-11-09T14:53:34.929Z,85.92
2022-11-09T14:56:04.578Z,86.41
2022-11-09T14:58:34.678Z,87.63
2022-11-09T15:01:24.354Z,87.81
2022-11-09T15:04:11.256Z,88.25
2022-11-09T15:06:50.917Z,88.58
2022-11-09T15:09:20.773Z,88.27
2022-11-09T15:11:48.266Z,89.04
2022-11-09T15:14:17.725Z,89.89
2022-11-09T15:16:45.356Z,89.92
2022-11-09T15:19:32.849Z,89.74
2022-11-09T15:21:59.646Z,90.17
2022-11-09T15:24:28.654Z,90.17
2022-11-09T15:26:56.806Z,89.80
2022-11-09T15:29:27.638Z,90.58
2022-11-09T15:32:21.963Z,90.60
2022-11-09T15:34:51.360Z,90.36
2022-11-09T15:37:31.120Z,90.66
2022-11-09T15:39:58.743Z,90.64
2022-11-09T15:42:26.416Z,90.81
2022-11-09T15:44:55.467Z,90.97
2022-11-09T15:47:33.193Z,90.85
2022-11-09T15:50:01.582Z,91.38
2022-11-09T15:52:28.586Z,91.56
2022-11-09T15:54:54.906Z,91.06
2022-11-09T15:57:21.787Z,90.81
2022-11-09T15:59:50.450Z,91.17
2022-11-09T16:02:18.994Z,91.37
2022-11-09T16:04:45.337Z,91.13
2022-11-09T16:07:15.201Z,91.53
2022-11-09T16:09:42.487Z,91.15
2022-11-09T16:12:09.711Z,90.99
2022-11-09T16:14:36.218Z,91.96
2022-11-09T16:17:04.298Z,91.70
2022-11-09T16:19:30.655Z,91.46
2022-11-09T16:21:58.424Z,91.30
2022-11-09T16:24:24.796Z,91.53
2022-11-09T16:26:52.874Z,91.87
2022-11-09T16:29:19.450Z,91.92
2022-11-09T16:31:51.778Z,91.77
2022-11-09T16:34:19.172Z,91.75
2022-11-09T16:36:50.868Z,91.61
2022-11-09T16:39:19.245Z,91.52
2022-11-09T16:41:48.877Z,91.35
2022-11-09T16:44:18.509Z,91.36
2022-11-09T16:46:47.020Z,91.87
2022-11-09T16:49:14.562Z,91.34
2022-11-09T16:51:41.022Z,91.10
2022-11-09T16:54:07.434Z,91.24
2022-11-09T16:56:35.221Z,91.12
2022-11-09T16:59:01.667Z,90.82
2022-11-09T17:01:28.132Z,91.60
2022-11-09T17:03:54.690Z,91.33
2022-11-09T17:06:21.035Z,90.84
2022-11-09T17:08:47.575Z,90.97
2022-11-09T17:11:15.258Z,91.05
2022-11-09T17:13:43.013Z,90.72
2022-11-09T17:16:12.879Z,90.77
2022-11-09T17:18:39.722Z,90.92
2022-11-09T17:21:10.923Z,91.07
2022-11-09T17:23:38.495Z,90.40
2022-11-09T17:26:07.152Z,90.75
2022-11-09T17:28:37.659Z,91.59
2022-11-09T17:31:12.802Z,90.86
2022-11-09T17:33:39.185Z,90.40
2022-11-09T17:36:08.027Z,91.12
2022-11-09T17:38:34.893Z,90.48
2022-11-09T17:41:07.924Z,90.39
2022-11-09T17:43:38.185Z,90.35
2022-11-09T17:46:07.506Z,90.49
2022-11-09T17:48:36.305Z,90.57
2022-11-09T17:51:03.967Z,90.90
2022-11-09T17:53:30.651Z,91.26
2022-11-09T17:55:58.927Z,90.53
2022-11-09T17:58:25.815Z,90.49
2022-11-09T18:00:52.388Z,90.71
2022-11-09T18:03:19.105Z,90.33
2022-11-09T18:05:45.985Z,91.01
2022-11-09T18:08:14.353Z,91.05
2022-11-09T18:10:44.498Z,91.56
2022-11-09T18:13:11.719Z,90.86
2022-11-09T18:15:39.140Z,91.58
2022-11-09T18:18:06.871Z,91.52
2022-11-09T18:20:33.889Z,91.59
2022-11-09T18:23:00.230Z,90.63
2022-11-09T18:25:26.584Z,91.13
2022-11-09T18:27:53.000Z,91.27
2022-11-09T18:30:19.765Z,91.35
2022-11-09T18:32:46.264Z,92.52
2022-11-09T18:35:12.754Z,91.89
2022-11-09T18:37:39.830Z,91.66
2022-11-09T18:40:07.621Z,91.89
2022-11-09T18:42:34.075Z,92.19
2022-11-09T18:45:00.537Z,92.38
2022-11-09T18:47:27.091Z,92.34
2022-11-09T18:49:53.472Z,92.36
2022-11-09T18:52:19.907Z,92.95
2022-11-09T18:54:46.374Z,93.42
2022-11-09T18:57:16.001Z,93.95
2022-11-09T18:59:46.012Z,93.95
2022-11-09T19:02:13.920Z,93.86
2022-11-09T19:04:40.907Z,94.59
2022-11-09T19:07:07.414Z,94.24
2022-11-09T19:09:38.567Z,94.23
2022-11-09T19:12:10.202Z,94.50
2022-11-09T19:14:41.180Z,94.06
2022-11-09T19:17:14.224Z,94.80
2022-11-09T19:19:42.207Z,94.21
2022-11-09T19:22:15.051Z,94.08
2022-11-09T19:24:41.697Z,94.54
2022-11-09T19:27:08.071Z,94.51
2022-11-09T19:29:34.470Z,93.96
2022-11-09T19:32:00.851Z,94.82
2022-11-09T19:34:27.451Z,94.61
2022-11-09T19:36:53.917Z,94.78
2022-11-09T19:39:20.471Z,94.97
2022-11-09T19:41:47.861Z,94.96
2022-11-09T19:44:14.926Z,95.29
2022-11-09T19:46:41.545Z,94.94
2022-11-09T19:49:09.193Z,95.68
2022-11-09T19:51:36.591Z,95.45
2022-11-09T19:54:04.594Z,95.21
2022-11-09T19:56:32.468Z,95.38
2022-11-09T19:59:01.248Z,95.40
2022-11-09T20:01:27.994Z,94.96
2022-11-09T20:03:56.223Z,94.93
2022-11-09T20:06:24.227Z,94.79
2022-11-09T20:08:52.101Z,95.07
2022-11-09T20:11:40.646Z,95.04
2022-11-09T20:14:08.313Z,95.04
2022-11-09T20:16:36.466Z,95.56
2022-11-09T20:19:04.849Z,95.57
2022-11-09T20:21:31.600Z,95.19
2022-11-09T20:23:58.397Z,95.78
2022-11-09T20:26:24.747Z,96.24
2022-11-09T20:28:54.684Z,96.01
2022-11-09T20:31:22.727Z,96.35
2022-11-09T20:33:50.147Z,95.91
2022-11-09T20:36:18.726Z,96.38
2022-11-09T20:38:45.897Z,95.90
2022-11-09T20:41:12.330Z,95.85
2022-11-09T20:43:39.522Z,95.82
2022-11-09T20:46:08.853Z,96.49
2022-11-09T20:48:53.442Z,96.20
2022-11-09T20:51:21.260Z,95.90
2022-11-09T20:53:50.088Z,96.00
2022-11-09T20:56:17.577Z,95.74
2022-11-09T20:58:43.989Z,96.08
2022-11-09T21:01:13.627Z,95.88
2022-11-09T21:03:40.399Z,95.89
2022-11-09T21:06:07.848Z,96.00
2022-11-09T21:08:35.758Z,95.58
2022-11-09T21:11:04.491Z,96.65
2022-11-09T21:13:31.527Z,96.24
2022-11-09T21:16:09.076Z,96.45
2022-11-09T21:18:35.895Z,95.91
2022-11-09T21:21:13.406Z,95.74
2022-11-09T21:23:58.732Z,95.91
2022-11-09T21:26:43.978Z,96.45
2022-11-09T21:29:32.974Z,96.19
2022-11-09T21:31:59.597Z,95.40
2022-11-09T21:34:26.346Z,95.54
2022-11-09T21:36:52.720Z,95.30
2022-11-09T21:39:19.026Z,95.78
2022-11-09T21:41:45.566Z,95.50
2022-11-09T21:44:12.495Z,95.41
2022-11-09T21:46:40.549Z,96.17
2022-11-09T21:49:08.878Z,95.90
2022-11-09T21:51:37.029Z,96.51
2022-11-09T21:54:04.794Z,95.54
2022-11-09T21:56:31.160Z,94.98
2022-11-09T21:58:57.927Z,95.92
2022-11-09T22:01:24.408Z,95.24
2022-11-09T22:03:51.043Z,95.85
2022-11-09T22:06:17.840Z,95.28
2022-11-09T22:08:44.818Z,95.60
2022-11-09T22:11:41.572Z,95.91
2022-11-09T22:14:34.787Z,95.87
2022-11-09T22:17:01.521Z,95.70
2022-11-09T22:19:46.837Z,95.65
2022-11-09T22:22:14.217Z,95.67
2022-11-09T22:24:40.922Z,95.54
2022-11-09T22:27:07.719Z,95.80
2022-11-09T22:29:34.203Z,96.85
2022-11-09T22:32:00.623Z,96.68
2022-11-09T22:34:27.295Z,96.55
2022-11-09T22:36:53.667Z,96.81
2022-11-09T22:39:20.265Z,96.29
2022-11-09T22:41:46.608Z,96.42
2022-11-09T22:44:13.331Z,96.16
2022-11-09T22:46:39.718Z,97.02
2022-11-09T22:49:06.638Z,96.84
2022-11-09T22:51:32.997Z,96.46
2022-11-09T22:53:59.317Z,96.54
2022-11-09T22:56:25.703Z,96.66
2022-11-09T22:58:52.707Z,96.70
2022-11-09T23:01:20.673Z,97.38
2022-11-09T23:03:47.450Z,96.84
2022-11-09T23:06:19.291Z,96.94
2022-11-09T23:08:46.293Z,96.68
2022-11-09T23:11:17.478Z,96.89
2022-11-09T23:13:43.772Z,96.43
2022-11-09T23:16:11.739Z,96.71
2022-11-09T23:18:53.386Z,96.78
2022-11-09T23:21:29.811Z,96.89
2022-11-09T23:23:59.992Z,96.95
2022-11-09T23:26:27.866Z,96.85
2022-11-09T23:28:54.933Z,97.29
2022-11-09T23:31:25.056Z,96.96
2022-11-09T23:33:54.318Z,97.43
2022-11-09T23:36:25.852Z,97.37
2022-11-09T23:38:52.826Z,97.18
2022-11-09T23:41:19.542Z,97.24
2022-11-09T23:43:49.188Z,96.62
2022-11-09T23:46:17.328Z,96.98
2022-11-09T23:48:44.129Z,96.75
2022-11-09T23:51:10.691Z,96.35
2022-11-09T23:53:37.637Z,96.76
2022-11-09T23:56:09.361Z,96.64
2022-11-09T23:58:36.396Z,96.07
